sensor_id;sensor_type;location;lat;lon;timestamp;P1;durP1;ratioP1;P2;durP2;ratioP2
1402;SDS011;696;48.546;9.896;2023-02-28T00:02:16;4.03;;;2.78;;
1402;SDS011;696;48.546;9.896;2023-02-28T00:04:42;4.93;;;2.97;;
1402;SDS011;696;48.546;9.896;2023-02-28T00:07:08;2.92;;;2.63;;
1402;SDS011;696;48.546;9.896;2023-02-28T00:09:33;3.45;;;2.75;;
1402;SDS011;696;48.546;9.896;2023-02-28T00:11:59;9.68;;;3.50;;
1402;SDS011;696;48.546;9.896;2023-02-28T00:14:24;6.20;;;3.22;;
1402;SDS011;696;48.546;9.896;2023-02-28T00:16:49;11.00;;;4.00;;
1402;SDS011;696;48.546;9.896;2023-02-28T00:19:15;11.05;;;3.65;;
1402;SDS011;696;48.546;9.896;2023-02-28T00:21:40;4.38;;;3.30;;
1402;SDS011;696;48.546;9.896;2023-02-28T00:24:06;5.15;;;3.42;;
1402;SDS011;696;48.546;9.896;2023-02-28T00:26:32;6.63;;;3.72;;
1402;SDS011;696;48.546;9.896;2023-02-28T00:28:57;8.85;;;4.57;;
1402;SDS011;696;48.546;9.896;2023-02-28T00:31:23;5.00;;;3.58;;
1402;SDS011;696;48.546;9.896;2023-02-28T00:33:48;5.65;;;3.20;;
1402;SDS011;696;48.546;9.896;2023-02-28T00:36:13;5.22;;;3.30;;
1402;SDS011;696;48.546;9.896;2023-02-28T00:38:39;17.30;;;3.85;;
1402;SDS011;696;48.546;9.896;2023-02-28T00:41:06;4.47;;;3.50;;
1402;SDS011;696;48.546;9.896;2023-02-28T00:43:33;9.05;;;4.00;;
1402;SDS011;696;48.546;9.896;2023-02-28T00:45:59;14.13;;;5.10;;
1402;SDS011;696;48.546;9.896;2023-02-28T00:48:25;9.25;;;5.25;;
1402;SDS011;696;48.546;9.896;2023-02-28T00:50:50;8.60;;;4.68;;
1402;SDS011;696;48.546;9.896;2023-02-28T00:53:15;7.15;;;4.10;;
1402;SDS011;696;48.546;9.896;2023-02-28T00:55:41;5.85;;;3.63;;
1402;SDS011;696;48.546;9.896;2023-02-28T00:58:06;7.10;;;4.13;;
1402;SDS011;696;48.546;9.896;2023-02-28T01:00:31;8.02;;;4.05;;
1402;SDS011;696;48.546;9.896;2023-02-28T01:02:57;8.77;;;3.92;;
1402;SDS011;696;48.546;9.896;2023-02-28T01:05:22;6.78;;;4.00;;
1402;SDS011;696;48.546;9.896;2023-02-28T01:07:47;7.78;;;4.25;;
1402;SDS011;696;48.546;9.896;2023-02-28T01:10:13;5.85;;;3.53;;
1402;SDS011;696;48.546;9.896;2023-02-28T01:12:38;7.20;;;4.28;;
1402;SDS011;696;48.546;9.896;2023-02-28T01:15:03;9.77;;;5.70;;
1402;SDS011;696;48.546;9.896;2023-02-28T01:17:29;7.68;;;4.50;;
1402;SDS011;696;48.546;9.896;2023-02-28T01:19:55;4.95;;;3.40;;
1402;SDS011;696;48.546;9.896;2023-02-28T01:22:21;6.15;;;3.80;;
1402;SDS011;696;48.546;9.896;2023-02-28T01:24:46;6.95;;;3.80;;
1402;SDS011;696;48.546;9.896;2023-02-28T01:27:11;5.03;;;3.70;;
1402;SDS011;696;48.546;9.896;2023-02-28T01:29:37;4.28;;;3.33;;
1402;SDS011;696;48.546;9.896;2023-02-28T01:32:02;4.90;;;3.15;;
1402;SDS011;696;48.546;9.896;2023-02-28T01:34:27;4.47;;;3.03;;
1402;SDS011;696;48.546;9.896;2023-02-28T01:36:53;6.22;;;3.47;;
1402;SDS011;696;48.546;9.896;2023-02-28T01:39:18;5.82;;;3.05;;
1402;SDS011;696;48.546;9.896;2023-02-28T01:41:44;6.15;;;3.53;;
1402;SDS011;696;48.546;9.896;2023-02-28T01:47:12;5.18;;;3.33;;
1402;SDS011;696;48.546;9.896;2023-02-28T01:49:38;6.93;;;3.47;;
1402;SDS011;696;48.546;9.896;2023-02-28T01:52:03;4.22;;;3.25;;
1402;SDS011;696;48.546;9.896;2023-02-28T01:54:33;4.25;;;3.00;;
1402;SDS011;696;48.546;9.896;2023-02-28T01:57:06;7.75;;;3.53;;
1402;SDS011;696;48.546;9.896;2023-02-28T01:59:36;5.35;;;3.15;;
1402;SDS011;696;48.546;9.896;2023-02-28T02:02:20;5.20;;;3.30;;
1402;SDS011;696;48.546;9.896;2023-02-28T02:04:51;4.07;;;3.13;;
1402;SDS011;696;48.546;9.896;2023-02-28T02:07:19;5.32;;;3.20;;
1402;SDS011;696;48.546;9.896;2023-02-28T02:09:45;8.00;;;3.50;;
1402;SDS011;696;48.546;9.896;2023-02-28T02:12:25;4.93;;;3.28;;
1402;SDS011;696;48.546;9.896;2023-02-28T02:17:38;9.48;;;3.25;;
1402;SDS011;696;48.546;9.896;2023-02-28T02:20:15;5.03;;;3.25;;
1402;SDS011;696;48.546;9.896;2023-02-28T02:23:07;4.20;;;3.30;;
1402;SDS011;696;48.546;9.896;2023-02-28T02:25:53;6.28;;;3.40;;
1402;SDS011;696;48.546;9.896;2023-02-28T02:36:48;5.40;;;3.70;;
1402;SDS011;696;48.546;9.896;2023-02-28T02:39:29;6.00;;;3.22;;
1402;SDS011;696;48.546;9.896;2023-02-28T02:41:58;5.28;;;3.45;;
1402;SDS011;696;48.546;9.896;2023-02-28T02:44:28;4.05;;;3.55;;
1402;SDS011;696;48.546;9.896;2023-02-28T02:47:08;8.10;;;3.72;;
1402;SDS011;696;48.546;9.896;2023-02-28T02:49:36;6.90;;;4.07;;
1402;SDS011;696;48.546;9.896;2023-02-28T02:52:04;6.38;;;3.70;;
1402;SDS011;696;48.546;9.896;2023-02-28T02:54:33;5.55;;;3.50;;
1402;SDS011;696;48.546;9.896;2023-02-28T02:57:02;4.85;;;3.67;;
1402;SDS011;696;48.546;9.896;2023-02-28T02:59:29;4.93;;;3.50;;
1402;SDS011;696;48.546;9.896;2023-02-28T03:01:56;6.32;;;3.75;;
1402;SDS011;696;48.546;9.896;2023-02-28T03:04:25;4.82;;;3.38;;
1402;SDS011;696;48.546;9.896;2023-02-28T03:06:53;7.38;;;3.97;;
1402;SDS011;696;48.546;9.896;2023-02-28T03:09:19;4.75;;;3.70;;
1402;SDS011;696;48.546;9.896;2023-02-28T03:11:48;5.53;;;3.83;;
1402;SDS011;696;48.546;9.896;2023-02-28T03:27:38;5.07;;;3.78;;
1402;SDS011;696;48.546;9.896;2023-02-28T03:30:10;7.10;;;4.15;;
1402;SDS011;696;48.546;9.896;2023-02-28T03:35:26;5.13;;;3.58;;
1402;SDS011;696;48.546;9.896;2023-02-28T03:38:06;9.43;;;4.28;;
1402;SDS011;696;48.546;9.896;2023-02-28T03:40:34;5.68;;;3.90;;
1402;SDS011;696;48.546;9.896;2023-02-28T03:43:02;6.65;;;4.03;;
1402;SDS011;696;48.546;9.896;2023-02-28T03:45:33;5.85;;;3.90;;
1402;SDS011;696;48.546;9.896;2023-02-28T03:48:10;6.57;;;4.43;;
1402;SDS011;696;48.546;9.896;2023-02-28T03:50:42;7.22;;;3.65;;
1402;SDS011;696;48.546;9.896;2023-02-28T03:55:39;5.70;;;3.90;;
1402;SDS011;696;48.546;9.896;2023-02-28T04:04:09;4.82;;;3.80;;
1402;SDS011;696;48.546;9.896;2023-02-28T04:06:35;8.38;;;4.15;;
1402;SDS011;696;48.546;9.896;2023-02-28T04:09:01;7.28;;;3.90;;
1402;SDS011;696;48.546;9.896;2023-02-28T04:11:45;6.07;;;4.03;;
1402;SDS011;696;48.546;9.896;2023-02-28T04:14:11;5.80;;;3.97;;
1402;SDS011;696;48.546;9.896;2023-02-28T04:16:38;8.85;;;4.60;;
1402;SDS011;696;48.546;9.896;2023-02-28T04:19:06;7.00;;;4.72;;
1402;SDS011;696;48.546;9.896;2023-02-28T04:24:06;6.97;;;4.57;;
1402;SDS011;696;48.546;9.896;2023-02-28T04:26:33;6.20;;;4.03;;
1402;SDS011;696;48.546;9.896;2023-02-28T04:29:00;9.15;;;3.88;;
1402;SDS011;696;48.546;9.896;2023-02-28T04:31:25;7.10;;;4.30;;
1402;SDS011;696;48.546;9.896;2023-02-28T04:33:51;7.40;;;4.55;;
1402;SDS011;696;48.546;9.896;2023-02-28T04:36:16;7.57;;;5.10;;
1402;SDS011;696;48.546;9.896;2023-02-28T04:38:45;9.52;;;5.28;;
1402;SDS011;696;48.546;9.896;2023-02-28T04:41:11;7.30;;;4.60;;
1402;SDS011;696;48.546;9.896;2023-02-28T04:43:37;7.63;;;4.88;;
1402;SDS011;696;48.546;9.896;2023-02-28T04:46:03;13.73;;;5.32;;
1402;SDS011;696;48.546;9.896;2023-02-28T04:48:31;5.93;;;4.85;;
1402;SDS011;696;48.546;9.896;2023-02-28T04:51:01;12.20;;;5.47;;
1402;SDS011;696;48.546;9.896;2023-02-28T04:53:27;9.77;;;5.28;;
1402;SDS011;696;48.546;9.896;2023-02-28T04:55:53;9.13;;;5.30;;
1402;SDS011;696;48.546;9.896;2023-02-28T04:58:19;7.80;;;5.20;;
1402;SDS011;696;48.546;9.896;2023-02-28T05:00:47;9.00;;;5.18;;
1402;SDS011;696;48.546;9.896;2023-02-28T05:03:12;9.93;;;5.82;;
1402;SDS011;696;48.546;9.896;2023-02-28T05:05:38;6.82;;;5.05;;
1402;SDS011;696;48.546;9.896;2023-02-28T05:08:03;12.32;;;6.43;;
1402;SDS011;696;48.546;9.896;2023-02-28T05:10:30;13.25;;;5.03;;
1402;SDS011;696;48.546;9.896;2023-02-28T05:12:55;10.15;;;5.38;;
1402;SDS011;696;48.546;9.896;2023-02-28T05:15:20;19.15;;;6.65;;
1402;SDS011;696;48.546;9.896;2023-02-28T05:17:46;9.52;;;5.70;;
1402;SDS011;696;48.546;9.896;2023-02-28T05:20:11;12.35;;;6.70;;
1402;SDS011;696;48.546;9.896;2023-02-28T05:22:38;11.43;;;5.95;;
1402;SDS011;696;48.546;9.896;2023-02-28T05:25:04;8.10;;;5.63;;
1402;SDS011;696;48.546;9.896;2023-02-28T05:27:30;20.95;;;7.45;;
1402;SDS011;696;48.546;9.896;2023-02-28T05:29:56;17.75;;;8.65;;
1402;SDS011;696;48.546;9.896;2023-02-28T05:32:21;12.63;;;7.75;;
1402;SDS011;696;48.546;9.896;2023-02-28T05:34:47;14.45;;;6.57;;
1402;SDS011;696;48.546;9.896;2023-02-28T05:37:12;11.32;;;7.18;;
1402;SDS011;696;48.546;9.896;2023-02-28T05:39:38;14.95;;;7.55;;
1402;SDS011;696;48.546;9.896;2023-02-28T05:42:04;12.90;;;8.70;;
1402;SDS011;696;48.546;9.896;2023-02-28T05:44:29;10.90;;;7.75;;
1402;SDS011;696;48.546;9.896;2023-02-28T05:46:55;15.00;;;7.15;;
1402;SDS011;696;48.546;9.896;2023-02-28T05:49:20;15.35;;;8.20;;
1402;SDS011;696;48.546;9.896;2023-02-28T05:51:46;12.00;;;6.93;;
1402;SDS011;696;48.546;9.896;2023-02-28T05:54:11;10.27;;;6.75;;
1402;SDS011;696;48.546;9.896;2023-02-28T05:56:36;12.55;;;6.15;;
1402;SDS011;696;48.546;9.896;2023-02-28T05:59:05;16.33;;;7.10;;
1402;SDS011;696;48.546;9.896;2023-02-28T06:01:32;11.70;;;7.60;;
1402;SDS011;696;48.546;9.896;2023-02-28T06:04:01;10.35;;;7.25;;
1402;SDS011;696;48.546;9.896;2023-02-28T06:06:27;11.27;;;7.43;;
1402;SDS011;696;48.546;9.896;2023-02-28T06:08:53;12.25;;;6.53;;
1402;SDS011;696;48.546;9.896;2023-02-28T06:11:19;14.30;;;7.13;;
1402;SDS011;696;48.546;9.896;2023-02-28T06:13:45;10.68;;;7.25;;
1402;SDS011;696;48.546;9.896;2023-02-28T06:16:11;11.90;;;7.18;;
1402;SDS011;696;48.546;9.896;2023-02-28T06:18:36;12.93;;;6.90;;
1402;SDS011;696;48.546;9.896;2023-02-28T06:21:02;14.50;;;7.45;;
1402;SDS011;696;48.546;9.896;2023-02-28T06:23:27;17.08;;;6.97;;
1402;SDS011;696;48.546;9.896;2023-02-28T06:25:52;19.25;;;6.55;;
1402;SDS011;696;48.546;9.896;2023-02-28T06:28:18;11.77;;;7.32;;
1402;SDS011;696;48.546;9.896;2023-02-28T06:30:43;12.40;;;7.03;;
1402;SDS011;696;48.546;9.896;2023-02-28T06:33:09;13.65;;;7.38;;
1402;SDS011;696;48.546;9.896;2023-02-28T06:35:34;12.90;;;7.65;;
1402;SDS011;696;48.546;9.896;2023-02-28T06:38:00;10.75;;;6.88;;
1402;SDS011;696;48.546;9.896;2023-02-28T06:40:25;15.88;;;7.45;;
1402;SDS011;696;48.546;9.896;2023-02-28T06:42:51;14.30;;;7.43;;
1402;SDS011;696;48.546;9.896;2023-02-28T06:45:16;15.13;;;7.20;;
1402;SDS011;696;48.546;9.896;2023-02-28T06:47:42;10.73;;;6.65;;
1402;SDS011;696;48.546;9.896;2023-02-28T06:50:08;16.67;;;8.35;;
1402;SDS011;696;48.546;9.896;2023-02-28T06:52:36;12.75;;;8.25;;
1402;SDS011;696;48.546;9.896;2023-02-28T06:55:03;16.55;;;9.75;;
1402;SDS011;696;48.546;9.896;2023-02-28T06:57:30;13.07;;;8.10;;
1402;SDS011;696;48.546;9.896;2023-02-28T06:59:57;18.73;;;8.50;;
1402;SDS011;696;48.546;9.896;2023-02-28T07:02:23;21.23;;;8.02;;
1402;SDS011;696;48.546;9.896;2023-02-28T07:04:49;12.82;;;8.02;;
1402;SDS011;696;48.546;9.896;2023-02-28T07:07:14;19.38;;;7.90;;
1402;SDS011;696;48.546;9.896;2023-02-28T07:09:39;14.10;;;8.20;;
1402;SDS011;696;48.546;9.896;2023-02-28T07:12:04;14.20;;;8.18;;
1402;SDS011;696;48.546;9.896;2023-02-28T07:14:30;15.10;;;9.05;;
1402;SDS011;696;48.546;9.896;2023-02-28T07:16:56;18.20;;;8.13;;
1402;SDS011;696;48.546;9.896;2023-02-28T07:19:22;17.27;;;7.82;;
1402;SDS011;696;48.546;9.896;2023-02-28T07:21:47;14.77;;;7.93;;
1402;SDS011;696;48.546;9.896;2023-02-28T07:24:12;14.73;;;8.25;;
1402;SDS011;696;48.546;9.896;2023-02-28T07:26:40;11.73;;;7.50;;
1402;SDS011;696;48.546;9.896;2023-02-28T07:29:06;14.18;;;8.32;;
1402;SDS011;696;48.546;9.896;2023-02-28T07:31:31;16.02;;;7.35;;
1402;SDS011;696;48.546;9.896;2023-02-28T07:33:56;10.65;;;7.18;;
1402;SDS011;696;48.546;9.896;2023-02-28T07:36:22;10.85;;;7.53;;
1402;SDS011;696;48.546;9.896;2023-02-28T07:38:47;11.73;;;7.35;;
1402;SDS011;696;48.546;9.896;2023-02-28T07:41:15;18.83;;;8.80;;
1402;SDS011;696;48.546;9.896;2023-02-28T07:43:41;10.63;;;7.40;;
1402;SDS011;696;48.546;9.896;2023-02-28T07:46:08;27.05;;;8.05;;
1402;SDS011;696;48.546;9.896;2023-02-28T07:48:34;12.30;;;8.07;;
1402;SDS011;696;48.546;9.896;2023-02-28T07:51:00;13.07;;;7.82;;
1402;SDS011;696;48.546;9.896;2023-02-28T07:53:26;15.73;;;8.02;;
1402;SDS011;696;48.546;9.896;2023-02-28T07:55:54;14.15;;;7.93;;
1402;SDS011;696;48.546;9.896;2023-02-28T07:58:23;12.13;;;7.25;;
1402;SDS011;696;48.546;9.896;2023-02-28T08:00:49;14.07;;;8.07;;
1402;SDS011;696;48.546;9.896;2023-02-28T08:03:15;13.65;;;8.10;;
1402;SDS011;696;48.546;9.896;2023-02-28T08:05:41;15.65;;;7.90;;
1402;SDS011;696;48.546;9.896;2023-02-28T08:08:07;15.50;;;8.23;;
1402;SDS011;696;48.546;9.896;2023-02-28T08:10:33;15.60;;;7.97;;
1402;SDS011;696;48.546;9.896;2023-02-28T08:12:58;15.63;;;7.68;;
1402;SDS011;696;48.546;9.896;2023-02-28T08:15:24;13.30;;;7.68;;
1402;SDS011;696;48.546;9.896;2023-02-28T08:17:49;13.60;;;7.55;;
1402;SDS011;696;48.546;9.896;2023-02-28T08:20:14;16.90;;;7.88;;
1402;SDS011;696;48.546;9.896;2023-02-28T08:22:39;13.07;;;8.32;;
1402;SDS011;696;48.546;9.896;2023-02-28T08:25:06;12.75;;;7.80;;
1402;SDS011;696;48.546;9.896;2023-02-28T08:27:32;13.75;;;7.65;;
1402;SDS011;696;48.546;9.896;2023-02-28T08:29:58;11.93;;;7.07;;
1402;SDS011;696;48.546;9.896;2023-02-28T08:32:23;15.18;;;8.85;;
1402;SDS011;696;48.546;9.896;2023-02-28T08:34:48;17.05;;;8.57;;
1402;SDS011;696;48.546;9.896;2023-02-28T08:37:14;14.45;;;7.95;;
1402;SDS011;696;48.546;9.896;2023-02-28T08:39:39;11.98;;;7.38;;
1402;SDS011;696;48.546;9.896;2023-02-28T08:42:04;12.85;;;7.95;;
1402;SDS011;696;48.546;9.896;2023-02-28T08:44:30;11.95;;;7.50;;
1402;SDS011;696;48.546;9.896;2023-02-28T08:46:55;12.75;;;7.63;;
1402;SDS011;696;48.546;9.896;2023-02-28T08:49:21;10.93;;;6.93;;
1402;SDS011;696;48.546;9.896;2023-02-28T08:51:46;17.42;;;7.28;;
1402;SDS011;696;48.546;9.896;2023-02-28T08:54:11;11.80;;;7.47;;
1402;SDS011;696;48.546;9.896;2023-02-28T08:56:37;11.85;;;8.00;;
1402;SDS011;696;48.546;9.896;2023-02-28T08:59:03;11.32;;;6.72;;
1402;SDS011;696;48.546;9.896;2023-02-28T09:01:28;12.27;;;7.95;;
1402;SDS011;696;48.546;9.896;2023-02-28T09:03:54;13.23;;;7.03;;
1402;SDS011;696;48.546;9.896;2023-02-28T09:06:21;12.40;;;7.50;;
1402;SDS011;696;48.546;9.896;2023-02-28T09:08:48;10.60;;;7.32;;
1402;SDS011;696;48.546;9.896;2023-02-28T09:11:14;12.20;;;6.85;;
1402;SDS011;696;48.546;9.896;2023-02-28T09:13:39;10.52;;;7.45;;
1402;SDS011;696;48.546;9.896;2023-02-28T09:16:05;11.20;;;7.82;;
1402;SDS011;696;48.546;9.896;2023-02-28T09:18:33;16.83;;;7.20;;
1402;SDS011;696;48.546;9.896;2023-02-28T09:21:02;24.92;;;8.45;;
1402;SDS011;696;48.546;9.896;2023-02-28T09:23:29;13.10;;;8.15;;
1402;SDS011;696;48.546;9.896;2023-02-28T09:25:55;11.43;;;6.32;;
1402;SDS011;696;48.546;9.896;2023-02-28T09:28:20;12.93;;;7.25;;
1402;SDS011;696;48.546;9.896;2023-02-28T09:30:48;13.02;;;7.43;;
1402;SDS011;696;48.546;9.896;2023-02-28T09:33:16;12.60;;;7.55;;
1402;SDS011;696;48.546;9.896;2023-02-28T09:35:42;16.45;;;7.90;;
1402;SDS011;696;48.546;9.896;2023-02-28T09:38:08;12.35;;;6.95;;
1402;SDS011;696;48.546;9.896;2023-02-28T09:40:38;9.60;;;7.22;;
1402;SDS011;696;48.546;9.896;2023-02-28T09:43:09;12.18;;;7.35;;
1402;SDS011;696;48.546;9.896;2023-02-28T09:45:39;11.82;;;7.05;;
1402;SDS011;696;48.546;9.896;2023-02-28T09:48:09;10.27;;;7.13;;
1402;SDS011;696;48.546;9.896;2023-02-28T09:50:45;11.35;;;7.30;;
1402;SDS011;696;48.546;9.896;2023-02-28T09:55:48;14.38;;;7.40;;
1402;SDS011;696;48.546;9.896;2023-02-28T09:58:32;15.55;;;7.30;;
1402;SDS011;696;48.546;9.896;2023-02-28T10:01:09;11.52;;;7.28;;
1402;SDS011;696;48.546;9.896;2023-02-28T10:03:47;13.60;;;7.78;;
1402;SDS011;696;48.546;9.896;2023-02-28T10:08:57;14.07;;;7.22;;
1402;SDS011;696;48.546;9.896;2023-02-28T10:11:26;14.05;;;7.50;;
1402;SDS011;696;48.546;9.896;2023-02-28T10:16:28;14.15;;;8.70;;
1402;SDS011;696;48.546;9.896;2023-02-28T10:18:59;14.95;;;8.00;;
1402;SDS011;696;48.546;9.896;2023-02-28T10:21:38;11.70;;;6.93;;
1402;SDS011;696;48.546;9.896;2023-02-28T10:24:16;10.07;;;6.95;;
1402;SDS011;696;48.546;9.896;2023-02-28T10:27:03;11.45;;;7.55;;
1402;SDS011;696;48.546;9.896;2023-02-28T10:29:37;14.10;;;6.93;;
1402;SDS011;696;48.546;9.896;2023-02-28T10:32:05;18.42;;;8.02;;
1402;SDS011;696;48.546;9.896;2023-02-28T10:34:31;10.57;;;7.13;;
1402;SDS011;696;48.546;9.896;2023-02-28T10:36:56;12.65;;;7.43;;
1402;SDS011;696;48.546;9.896;2023-02-28T10:39:42;10.77;;;7.50;;
1402;SDS011;696;48.546;9.896;2023-02-28T10:42:22;10.23;;;7.28;;
1402;SDS011;696;48.546;9.896;2023-02-28T10:47:41;14.60;;;7.68;;
1402;SDS011;696;48.546;9.896;2023-02-28T10:56:32;14.40;;;7.15;;
1402;SDS011;696;48.546;9.896;2023-02-28T10:58:46;11.45;;;7.35;;
1402;SDS011;696;48.546;9.896;2023-02-28T11:03:45;11.38;;;7.10;;
1402;SDS011;696;48.546;9.896;2023-02-28T11:06:21;10.18;;;6.32;;
1402;SDS011;696;48.546;9.896;2023-02-28T11:08:52;10.45;;;7.47;;
1402;SDS011;696;48.546;9.896;2023-02-28T11:11:20;15.32;;;8.13;;
1402;SDS011;696;48.546;9.896;2023-02-28T11:13:46;11.80;;;7.13;;
1402;SDS011;696;48.546;9.896;2023-02-28T11:16:13;15.02;;;7.72;;
1402;SDS011;696;48.546;9.896;2023-02-28T11:18:50;19.85;;;8.18;;
1402;SDS011;696;48.546;9.896;2023-02-28T11:21:27;12.80;;;7.68;;
1402;SDS011;696;48.546;9.896;2023-02-28T11:24:06;12.38;;;7.25;;
1402;SDS011;696;48.546;9.896;2023-02-28T11:26:45;10.10;;;6.90;;
1402;SDS011;696;48.546;9.896;2023-02-28T11:34:33;15.93;;;9.32;;
1402;SDS011;696;48.546;9.896;2023-02-28T11:37:00;17.25;;;8.05;;
1402;SDS011;696;48.546;9.896;2023-02-28T11:39:29;12.25;;;7.07;;
1402;SDS011;696;48.546;9.896;2023-02-28T11:44:49;13.43;;;7.30;;
1402;SDS011;696;48.546;9.896;2023-02-28T11:52:35;15.02;;;7.85;;
1402;SDS011;696;48.546;9.896;2023-02-28T11:55:17;13.55;;;8.13;;
1402;SDS011;696;48.546;9.896;2023-02-28T11:58:05;11.50;;;7.57;;
1402;SDS011;696;48.546;9.896;2023-02-28T12:01:06;12.15;;;7.53;;
1402;SDS011;696;48.546;9.896;2023-02-28T12:03:49;11.23;;;6.78;;
1402;SDS011;696;48.546;9.896;2023-02-28T12:06:43;12.13;;;7.00;;
1402;SDS011;696;48.546;9.896;2023-02-28T12:10:11;10.25;;;6.25;;
1402;SDS011;696;48.546;9.896;2023-02-28T12:20:40;7.80;;;5.57;;
1402;SDS011;696;48.546;9.896;2023-02-28T12:26:19;7.32;;;5.53;;
1402;SDS011;696;48.546;9.896;2023-02-28T12:29:49;8.82;;;6.20;;
1402;SDS011;696;48.546;9.896;2023-02-28T12:34:31;8.57;;;6.25;;
1402;SDS011;696;48.546;9.896;2023-02-28T12:37:00;8.75;;;5.53;;
1402;SDS011;696;48.546;9.896;2023-02-28T12:39:29;9.45;;;6.10;;
1402;SDS011;696;48.546;9.896;2023-02-28T12:42:05;8.82;;;5.50;;
1402;SDS011;696;48.546;9.896;2023-02-28T12:44:35;7.65;;;5.40;;
1402;SDS011;696;48.546;9.896;2023-02-28T12:47:05;13.43;;;5.43;;
1402;SDS011;696;48.546;9.896;2023-02-28T12:49:39;6.30;;;5.03;;
1402;SDS011;696;48.546;9.896;2023-02-28T12:52:07;8.57;;;5.57;;
1402;SDS011;696;48.546;9.896;2023-02-28T12:57:15;10.52;;;6.47;;
1402;SDS011;696;48.546;9.896;2023-02-28T12:59:54;9.93;;;6.40;;
1402;SDS011;696;48.546;9.896;2023-02-28T13:04:56;13.52;;;6.70;;
1402;SDS011;696;48.546;9.896;2023-02-28T13:07:49;11.55;;;6.40;;
1402;SDS011;696;48.546;9.896;2023-02-28T13:10:42;13.40;;;5.70;;
1402;SDS011;696;48.546;9.896;2023-02-28T13:13:13;9.60;;;5.80;;
1402;SDS011;696;48.546;9.896;2023-02-28T13:15:41;8.75;;;5.10;;
1402;SDS011;696;48.546;9.896;2023-02-28T13:18:25;8.80;;;5.80;;
1402;SDS011;696;48.546;9.896;2023-02-28T13:20:54;10.50;;;5.97;;
1402;SDS011;696;48.546;9.896;2023-02-28T13:26:21;7.45;;;4.95;;
1402;SDS011;696;48.546;9.896;2023-02-28T13:28:57;6.72;;;4.85;;
1402;SDS011;696;48.546;9.896;2023-02-28T13:31:24;7.75;;;5.43;;
1402;SDS011;696;48.546;9.896;2023-02-28T13:38:57;8.15;;;5.90;;
1402;SDS011;696;48.546;9.896;2023-02-28T13:49:29;9.57;;;6.32;;
1402;SDS011;696;48.546;9.896;2023-02-28T13:52:02;7.18;;;5.20;;
1402;SDS011;696;48.546;9.896;2023-02-28T14:00:31;10.60;;;7.28;;
1402;SDS011;696;48.546;9.896;2023-02-28T14:11:45;9.48;;;5.35;;
1402;SDS011;696;48.546;9.896;2023-02-28T14:17:01;8.77;;;5.65;;
1402;SDS011;696;48.546;9.896;2023-02-28T14:19:29;12.93;;;6.40;;
1402;SDS011;696;48.546;9.896;2023-02-28T14:33:57;7.22;;;4.40;;
1402;SDS011;696;48.546;9.896;2023-02-28T14:36:33;11.10;;;6.00;;
1402;SDS011;696;48.546;9.896;2023-02-28T14:39:05;14.32;;;5.57;;
1402;SDS011;696;48.546;9.896;2023-02-28T14:41:33;6.75;;;4.80;;
1402;SDS011;696;48.546;9.896;2023-02-28T14:44:02;21.48;;;5.05;;
1402;SDS011;696;48.546;9.896;2023-02-28T14:46:35;8.88;;;4.85;;
1402;SDS011;696;48.546;9.896;2023-02-28T14:49:03;9.48;;;4.97;;
1402;SDS011;696;48.546;9.896;2023-02-28T14:51:30;7.65;;;4.75;;
1402;SDS011;696;48.546;9.896;2023-02-28T14:53:59;9.48;;;5.22;;
1402;SDS011;696;48.546;9.896;2023-02-28T14:56:27;7.60;;;5.07;;
1402;SDS011;696;48.546;9.896;2023-02-28T14:58:56;6.47;;;4.22;;
1402;SDS011;696;48.546;9.896;2023-02-28T15:01:22;9.88;;;5.43;;
1402;SDS011;696;48.546;9.896;2023-02-28T15:03:56;8.93;;;5.40;;
1402;SDS011;696;48.546;9.896;2023-02-28T15:06:22;10.00;;;5.28;;
1402;SDS011;696;48.546;9.896;2023-02-28T15:09:01;7.40;;;5.05;;
1402;SDS011;696;48.546;9.896;2023-02-28T15:11:35;8.20;;;5.20;;
1402;SDS011;696;48.546;9.896;2023-02-28T15:14:00;9.38;;;5.40;;
1402;SDS011;696;48.546;9.896;2023-02-28T15:16:36;6.22;;;4.97;;
1402;SDS011;696;48.546;9.896;2023-02-28T15:19:14;7.45;;;5.68;;
1402;SDS011;696;48.546;9.896;2023-02-28T15:21:45;9.70;;;5.38;;
1402;SDS011;696;48.546;9.896;2023-02-28T15:27:16;7.57;;;5.00;;
1402;SDS011;696;48.546;9.896;2023-02-28T15:29:47;10.10;;;5.80;;
1402;SDS011;696;48.546;9.896;2023-02-28T15:32:21;8.85;;;5.32;;
1402;SDS011;696;48.546;9.896;2023-02-28T15:34:50;8.85;;;5.72;;
1402;SDS011;696;48.546;9.896;2023-02-28T15:37:29;11.48;;;6.95;;
1402;SDS011;696;48.546;9.896;2023-02-28T15:40:06;9.98;;;6.30;;
1402;SDS011;696;48.546;9.896;2023-02-28T15:42:36;8.98;;;5.55;;
1402;SDS011;696;48.546;9.896;2023-02-28T15:45:02;8.55;;;4.97;;
1402;SDS011;696;48.546;9.896;2023-02-28T15:47:28;7.82;;;5.75;;
1402;SDS011;696;48.546;9.896;2023-02-28T15:49:56;10.85;;;5.78;;
1402;SDS011;696;48.546;9.896;2023-02-28T15:52:40;9.23;;;5.70;;
1402;SDS011;696;48.546;9.896;2023-02-28T15:55:11;10.35;;;6.15;;
1402;SDS011;696;48.546;9.896;2023-02-28T15:57:41;11.00;;;5.75;;
1402;SDS011;696;48.546;9.896;2023-02-28T16:00:09;18.85;;;6.43;;
1402;SDS011;696;48.546;9.896;2023-02-28T16:02:37;15.85;;;6.78;;
1402;SDS011;696;48.546;9.896;2023-02-28T16:07:31;14.73;;;6.63;;
1402;SDS011;696;48.546;9.896;2023-02-28T16:09:58;11.70;;;7.13;;
1402;SDS011;696;48.546;9.896;2023-02-28T16:12:27;8.20;;;6.05;;
1402;SDS011;696;48.546;9.896;2023-02-28T16:14:54;9.60;;;6.20;;
1402;SDS011;696;48.546;9.896;2023-02-28T16:17:22;9.43;;;5.93;;
1402;SDS011;696;48.546;9.896;2023-02-28T16:19:50;16.70;;;6.90;;
1402;SDS011;696;48.546;9.896;2023-02-28T16:22:15;15.07;;;8.68;;
1402;SDS011;696;48.546;9.896;2023-02-28T16:24:40;18.13;;;8.23;;
1402;SDS011;696;48.546;9.896;2023-02-28T16:27:06;8.63;;;6.00;;
1402;SDS011;696;48.546;9.896;2023-02-28T16:29:39;10.82;;;7.38;;
1402;SDS011;696;48.546;9.896;2023-02-28T16:32:05;15.52;;;6.57;;
1402;SDS011;696;48.546;9.896;2023-02-28T16:34:30;13.57;;;7.60;;
1402;SDS011;696;48.546;9.896;2023-02-28T16:36:56;14.68;;;7.70;;
1402;SDS011;696;48.546;9.896;2023-02-28T16:39:22;10.75;;;6.53;;
1402;SDS011;696;48.546;9.896;2023-02-28T16:41:48;11.35;;;6.82;;
1402;SDS011;696;48.546;9.896;2023-02-28T16:44:31;14.07;;;7.63;;
1402;SDS011;696;48.546;9.896;2023-02-28T16:47:02;12.02;;;7.70;;
1402;SDS011;696;48.546;9.896;2023-02-28T16:49:28;11.68;;;7.60;;
1402;SDS011;696;48.546;9.896;2023-02-28T16:51:54;15.90;;;8.48;;
1402;SDS011;696;48.546;9.896;2023-02-28T16:54:19;13.93;;;9.25;;
1402;SDS011;696;48.546;9.896;2023-02-28T16:56:45;12.45;;;8.65;;
1402;SDS011;696;48.546;9.896;2023-02-28T16:59:11;14.25;;;8.77;;
1402;SDS011;696;48.546;9.896;2023-02-28T17:01:37;18.13;;;10.23;;
1402;SDS011;696;48.546;9.896;2023-02-28T17:04:03;17.83;;;9.48;;
1402;SDS011;696;48.546;9.896;2023-02-28T17:06:29;16.10;;;9.63;;
1402;SDS011;696;48.546;9.896;2023-02-28T17:08:55;15.48;;;9.80;;
1402;SDS011;696;48.546;9.896;2023-02-28T17:11:21;17.33;;;9.75;;
1402;SDS011;696;48.546;9.896;2023-02-28T17:13:47;26.08;;;9.60;;
1402;SDS011;696;48.546;9.896;2023-02-28T17:16:25;26.58;;;16.58;;
1402;SDS011;696;48.546;9.896;2023-02-28T17:18:54;41.65;;;21.75;;
1402;SDS011;696;48.546;9.896;2023-02-28T17:21:20;51.47;;;24.85;;
1402;SDS011;696;48.546;9.896;2023-02-28T17:23:45;56.25;;;30.77;;
1402;SDS011;696;48.546;9.896;2023-02-28T17:26:15;73.50;;;33.67;;
1402;SDS011;696;48.546;9.896;2023-02-28T17:28:42;60.65;;;28.27;;
1402;SDS011;696;48.546;9.896;2023-02-28T17:31:08;40.42;;;22.27;;
1402;SDS011;696;48.546;9.896;2023-02-28T17:33:34;88.05;;;43.38;;
1402;SDS011;696;48.546;9.896;2023-02-28T17:35:59;96.05;;;46.75;;
1402;SDS011;696;48.546;9.896;2023-02-28T17:38:25;105.00;;;50.25;;
1402;SDS011;696;48.546;9.896;2023-02-28T17:40:50;71.57;;;37.10;;
1402;SDS011;696;48.546;9.896;2023-02-28T17:43:15;75.07;;;33.20;;
1402;SDS011;696;48.546;9.896;2023-02-28T17:45:41;58.88;;;29.15;;
1402;SDS011;696;48.546;9.896;2023-02-28T17:48:08;56.33;;;26.20;;
1402;SDS011;696;48.546;9.896;2023-02-28T17:50:34;40.50;;;19.33;;
1402;SDS011;696;48.546;9.896;2023-02-28T17:53:00;41.38;;;17.80;;
1402;SDS011;696;48.546;9.896;2023-02-28T17:55:25;34.15;;;15.52;;